createdAt,value
2017-12-19T00:00:18.311Z,97.90
2017-12-19T00:03:23.114Z,97.90
2017-12-19T00:06:29.270Z,97.90
2017-12-19T00:09:35.382Z,98.10
2017-12-19T00:12:41.150Z,98.10
2017-12-19T00:15:46.468Z,98.10
2017-12-19T00:18:52.450Z,98.20
2017-12-19T00:21:58.661Z,98.20
2017-12-19T00:25:04.084Z,98.20
2017-12-19T00:28:10.495Z,98.30
2017-12-19T00:31:16.010Z,98.20
2017-12-19T00:34:21.439Z,98.30
2017-12-19T00:37:26.398Z,98.20
2017-12-19T00:40:31.433Z,98.20
2017-12-19T00:43:37.191Z,98.60
2017-12-19T00:46:42.918Z,98.30
2017-12-19T00:49:48.562Z,98.30
2017-12-19T00:52:54.042Z,98.20
2017-12-19T00:55:59.639Z,98.30
2017-12-19T00:59:05.994Z,98.20
2017-12-19T01:02:11.689Z,98.20
2017-12-19T01:05:17.083Z,98.10
2017-12-19T01:08:21.963Z,98.10
2017-12-19T01:11:27.006Z,97.70
2017-12-19T01:14:32.259Z,97.90
2017-12-19T01:17:38.291Z,97.70
2017-12-19T01:20:44.038Z,97.90
2017-12-19T01:23:50.667Z,98.40
2017-12-19T01:26:56.566Z,98.10
2017-12-19T01:30:01.923Z,98.10
2017-12-19T01:33:07.154Z,98.10
2017-12-19T01:36:12.756Z,98.00
2017-12-19T01:39:17.904Z,98.00
2017-12-19T01:42:23.652Z,98.00
2017-12-19T01:45:30.029Z,98.10
2017-12-19T01:48:35.246Z,98.10
2017-12-19T01:51:40.274Z,98.00
2017-12-19T01:54:46.019Z,97.90
2017-12-19T01:57:51.156Z,97.70
2017-12-19T02:00:56.869Z,97.40
2017-12-19T02:04:02.257Z,97.40
2017-12-19T02:07:07.421Z,97.60
2017-12-19T02:10:12.395Z,97.60
2017-12-19T02:13:18.062Z,97.60
2017-12-19T02:16:23.124Z,97.60
2017-12-19T02:19:28.142Z,97.70
2017-12-19T02:22:33.274Z,97.90
2017-12-19T02:25:38.587Z,98.00
2017-12-19T02:28:44.472Z,97.80
2017-12-19T02:31:50.160Z,97.70
2017-12-19T02:34:55.948Z,97.70
2017-12-19T02:38:01.650Z,98.20
2017-12-19T02:41:06.834Z,98.10
2017-12-19T02:44:12.233Z,98.30
2017-12-19T02:47:17.956Z,98.30
2017-12-19T02:50:23.404Z,97.90
2017-12-19T02:53:29.180Z,97.90
2017-12-19T02:56:35.869Z,97.30
2017-12-19T02:59:41.310Z,97.30
2017-12-19T03:02:46.474Z,97.20
2017-12-19T03:05:52.805Z,96.80
2017-12-19T03:08:58.421Z,96.80
2017-12-19T03:12:04.302Z,96.70
2017-12-19T03:15:09.770Z,96.70
2017-12-19T03:18:15.516Z,96.70
2017-12-19T03:21:22.042Z,97.20
2017-12-19T03:24:27.908Z,97.60
2017-12-19T03:27:33.765Z,97.30
2017-12-19T03:30:38.865Z,97.60
2017-12-19T03:33:45.451Z,98.20
2017-12-19T03:36:51.452Z,97.90
2017-12-19T03:39:56.861Z,97.90
2017-12-19T03:43:02.374Z,98.20
2017-12-19T03:46:07.817Z,98.10
2017-12-19T03:49:13.622Z,98.10
2017-12-19T03:52:18.911Z,98.30
2017-12-19T03:55:25.466Z,98.20
2017-12-19T03:58:30.986Z,98.20
2017-12-19T04:01:36.268Z,98.20
2017-12-19T04:04:41.665Z,98.20
2017-12-19T04:07:48.319Z,98.50
2017-12-19T04:10:53.150Z,98.10
2017-12-19T04:13:58.865Z,98.10
2017-12-19T04:17:04.646Z,98.10
2017-12-19T04:20:10.102Z,98.10
2017-12-19T04:23:15.598Z,98.10
2017-12-19T04:26:22.084Z,98.00
2017-12-19T04:29:27.974Z,98.00
2017-12-19T04:32:33.106Z,98.00
2017-12-19T04:35:38.103Z,98.00
2017-12-19T04:38:42.931Z,97.80
2017-12-19T04:41:49.278Z,97.80
2017-12-19T04:44:54.447Z,97.80
2017-12-19T04:48:00.805Z,97.90
2017-12-19T04:51:05.875Z,97.90
2017-12-19T04:54:10.654Z,97.70
2017-12-19T04:57:16.074Z,97.90
2017-12-19T05:00:21.186Z,97.80
2017-12-19T05:03:26.061Z,97.90
2017-12-19T05:06:30.954Z,98.00
2017-12-19T05:09:36.949Z,97.70
2017-12-19T05:12:42.561Z,97.90
2017-12-19T05:15:47.926Z,97.80
2017-12-19T05:18:52.874Z,97.80
2017-12-19T05:21:58.485Z,97.60
2017-12-19T05:25:03.376Z,97.70
2017-12-19T05:28:08.336Z,98.00
2017-12-19T05:31:13.556Z,98.10
2017-12-19T05:34:18.682Z,98.50
2017-12-19T05:37:24.058Z,98.00
2017-12-19T05:40:30.667Z,97.70
2017-12-19T05:43:35.888Z,97.70
2017-12-19T05:46:41.386Z,97.60
2017-12-19T05:49:46.966Z,97.30
2017-12-19T05:52:52.730Z,97.50
2017-12-19T05:55:57.735Z,97.60
2017-12-19T05:59:03.422Z,97.70
2017-12-19T06:02:08.755Z,97.70
2017-12-19T06:05:13.942Z,97.70
2017-12-19T06:08:20.293Z,97.70
2017-12-19T06:11:26.074Z,97.80
2017-12-19T06:14:30.946Z,97.70
2017-12-19T06:17:36.907Z,97.80
2017-12-19T06:20:42.833Z,97.70
2017-12-19T06:23:48.096Z,97.80
2017-12-19T06:26:54.622Z,97.10
2017-12-19T06:30:00.126Z,97.10
2017-12-19T06:33:05.748Z,96.80
2017-12-19T06:36:11.726Z,96.80
2017-12-19T06:39:18.234Z,96.90
2017-12-19T06:42:23.333Z,96.70
2017-12-19T06:45:28.494Z,97.00
2017-12-19T06:48:34.379Z,97.30
2017-12-19T06:51:40.491Z,97.50
2017-12-19T06:54:46.215Z,97.50
2017-12-19T06:57:51.770Z,97.50
2017-12-19T07:00:58.006Z,97.60
2017-12-19T07:04:04.294Z,97.70
2017-12-19T07:07:09.290Z,97.70
2017-12-19T07:10:15.134Z,97.80
2017-12-19T07:13:20.510Z,97.70
2017-12-19T07:16:25.530Z,97.80
2017-12-19T07:19:30.526Z,98.00
2017-12-19T07:22:35.585Z,98.20
2017-12-19T07:25:41.793Z,98.10
2017-12-19T07:28:47.366Z,98.10
2017-12-19T07:31:53.675Z,98.10
2017-12-19T07:34:58.670Z,98.00
2017-12-19T07:38:04.326Z,98.00
2017-12-19T07:41:09.722Z,97.90
2017-12-19T07:44:15.362Z,97.90
2017-12-19T07:47:20.710Z,97.90
2017-12-19T07:50:26.454Z,97.80
2017-12-19T07:53:32.257Z,97.90
2017-12-19T07:56:37.386Z,97.90
2017-12-19T07:59:43.943Z,97.90
2017-12-19T08:02:50.052Z,97.80
2017-12-19T08:05:55.182Z,97.80
2017-12-19T08:09:00.346Z,97.80
2017-12-19T08:12:05.626Z,97.70
2017-12-19T08:15:10.874Z,97.60
2017-12-19T08:18:16.610Z,97.60
2017-12-19T08:21:22.378Z,97.70
2017-12-19T08:24:27.886Z,97.80
2017-12-19T08:27:33.625Z,97.70
2017-12-19T08:30:38.914Z,97.70
2017-12-19T08:33:43.986Z,97.60
2017-12-19T08:36:50.178Z,97.40
2017-12-19T08:39:55.353Z,97.30
2017-12-19T08:43:01.458Z,97.60
2017-12-19T08:46:06.906Z,97.90
2017-12-19T08:49:13.450Z,97.50
2017-12-19T08:52:18.302Z,97.50
2017-12-19T08:55:23.978Z,96.30
2017-12-19T08:58:29.604Z,96.50
2017-12-19T09:01:34.430Z,96.40
2017-12-19T09:04:40.369Z,96.40
2017-12-19T09:07:45.502Z,96.70
2017-12-19T09:10:51.441Z,96.40
2017-12-19T09:13:56.592Z,96.30
2017-12-19T09:17:02.109Z,96.00
2017-12-19T09:20:08.026Z,95.60
2017-12-19T09:23:12.894Z,95.60
2017-12-19T09:26:18.054Z,95.30
2017-12-19T09:29:22.936Z,95.00
2017-12-19T09:32:27.926Z,94.90
2017-12-19T09:35:34.109Z,94.10
2017-12-19T09:38:40.195Z,94.30
2017-12-19T09:41:45.773Z,94.30
2017-12-19T09:44:51.132Z,94.70
2017-12-19T09:47:57.046Z,93.90
2017-12-19T09:51:02.407Z,94.20
2017-12-19T09:54:08.262Z,94.40
2017-12-19T09:57:13.029Z,94.40
2017-12-19T10:00:18.747Z,93.70
2017-12-19T10:03:24.399Z,93.90
2017-12-19T10:06:29.793Z,93.90
2017-12-19T10:09:35.031Z,94.00
2017-12-19T10:12:40.812Z,93.30
2017-12-19T10:15:46.570Z,92.30
2017-12-19T10:18:52.383Z,92.30
2017-12-19T10:21:57.123Z,92.10
2017-12-19T10:25:02.171Z,91.70
2017-12-19T10:28:07.638Z,92.00
2017-12-19T10:31:13.111Z,92.00
2017-12-19T10:34:18.562Z,92.10
2017-12-19T10:37:23.959Z,92.40
2017-12-19T10:40:30.608Z,91.80
2017-12-19T10:43:35.639Z,91.80
2017-12-19T10:46:40.842Z,92.40
2017-12-19T10:49:46.090Z,92.80
2017-12-19T10:52:51.736Z,92.80
2017-12-19T10:55:57.042Z,92.80
2017-12-19T10:59:02.461Z,92.70
2017-12-19T11:02:07.385Z,92.30
2017-12-19T11:05:13.285Z,92.10
2017-12-19T11:08:18.995Z,92.00
2017-12-19T11:11:24.747Z,92.50
2017-12-19T11:14:29.838Z,92.60
2017-12-19T11:17:35.201Z,93.20
2017-12-19T11:20:40.126Z,92.70
2017-12-19T11:23:45.861Z,93.00
2017-12-19T11:26:51.236Z,92.80
2017-12-19T11:29:56.998Z,93.20
2017-12-19T11:33:03.108Z,93.10
2017-12-19T11:36:08.056Z,92.30
2017-12-19T11:39:13.778Z,93.40
2017-12-19T11:42:19.318Z,93.40
2017-12-19T11:45:24.191Z,93.00
2017-12-19T11:48:29.163Z,92.40
2017-12-19T11:51:34.742Z,92.50
2017-12-19T11:54:40.019Z,92.00
2017-12-19T11:57:45.743Z,92.40
2017-12-19T12:00:51.564Z,91.90
2017-12-19T12:03:57.834Z,92.40
2017-12-19T12:07:03.168Z,92.40
2017-12-19T12:10:09.274Z,92.20
2017-12-19T12:13:14.419Z,92.20
2017-12-19T12:16:20.867Z,92.00
2017-12-19T12:19:26.502Z,92.00
2017-12-19T12:22:32.241Z,92.70
2017-12-19T12:25:38.940Z,93.00
2017-12-19T12:28:45.543Z,93.20
2017-12-19T12:31:50.592Z,93.20
2017-12-19T12:34:55.495Z,93.50
2017-12-19T12:38:01.016Z,93.20
2017-12-19T12:41:06.829Z,92.40
2017-12-19T12:44:11.721Z,92.90
2017-12-19T12:47:17.052Z,93.70
2017-12-19T12:50:22.720Z,93.50
2017-12-19T12:53:28.504Z,93.40
2017-12-19T12:56:34.946Z,93.70
2017-12-19T12:59:39.763Z,93.70
2017-12-19T13:02:46.062Z,94.20
2017-12-19T13:05:52.391Z,93.90
2017-12-19T13:09:00.043Z,93.70
2017-12-19T13:12:05.891Z,93.70
2017-12-19T13:15:11.384Z,93.40
2017-12-19T13:18:17.463Z,92.30
2017-12-19T13:21:22.741Z,92.60
2017-12-19T13:24:29.021Z,92.70
2017-12-19T13:27:35.247Z,92.30
2017-12-19T13:30:41.327Z,92.30
2017-12-19T13:33:46.558Z,93.50
2017-12-19T13:36:52.130Z,92.70
2017-12-19T13:39:57.553Z,93.30
2017-12-19T13:43:02.461Z,93.90
2017-12-19T13:46:08.637Z,92.40
2017-12-19T13:49:13.677Z,92.40
2017-12-19T13:52:18.878Z,92.50
2017-12-19T13:55:23.961Z,92.10
2017-12-19T13:58:29.284Z,92.00
2017-12-19T14:01:34.988Z,92.20
2017-12-19T14:04:40.339Z,92.80
2017-12-19T14:07:46.203Z,93.00
2017-12-19T14:10:52.711Z,93.20
2017-12-19T14:13:57.598Z,93.20
2017-12-19T14:17:04.127Z,92.40
2017-12-19T14:20:09.174Z,92.40
2017-12-19T14:23:23.676Z,92.30
2017-12-19T14:26:29.888Z,92.30
2017-12-19T14:29:34.982Z,91.80
2017-12-19T14:32:39.954Z,92.60
2017-12-19T14:35:45.499Z,92.10
2017-12-19T14:38:51.445Z,93.50
2017-12-19T14:41:56.487Z,93.50
2017-12-19T14:45:02.291Z,93.90
2017-12-19T14:48:07.184Z,94.10
2017-12-19T14:51:12.857Z,93.80
2017-12-19T14:54:18.562Z,93.90
2017-12-19T14:57:23.252Z,94.00
2017-12-19T15:00:28.490Z,94.20
2017-12-19T15:03:34.598Z,94.20
2017-12-19T15:06:39.803Z,94.10
2017-12-19T15:09:45.481Z,94.30
2017-12-19T15:12:51.063Z,94.50
2017-12-19T15:15:57.084Z,94.80
2017-12-19T15:19:02.110Z,94.80
2017-12-19T15:22:08.011Z,94.70
2017-12-19T15:25:14.371Z,94.80
2017-12-19T15:28:20.501Z,95.00
2017-12-19T15:31:26.775Z,94.80
2017-12-19T15:34:32.242Z,94.80
2017-12-19T15:37:38.829Z,95.10
2017-12-19T15:40:44.390Z,95.10
2017-12-19T15:43:50.130Z,95.40
2017-12-19T15:46:56.501Z,95.40
2017-12-19T15:50:02.313Z,95.30
2017-12-19T15:53:07.523Z,95.30
2017-12-19T15:56:12.738Z,95.60
2017-12-19T15:59:19.271Z,95.60
2017-12-19T16:02:25.176Z,95.50
2017-12-19T16:05:30.301Z,95.50
2017-12-19T16:08:36.562Z,95.50
2017-12-19T16:11:42.281Z,95.50
2017-12-19T16:14:48.054Z,95.50
2017-12-19T16:17:53.529Z,95.50
2017-12-19T16:20:59.170Z,95.60
2017-12-19T16:24:04.350Z,95.60
2017-12-19T16:27:10.550Z,95.70
2017-12-19T16:30:15.490Z,95.70
2017-12-19T16:33:21.078Z,95.80
2017-12-19T16:36:27.051Z,95.90
2017-12-19T16:39:32.586Z,95.90
2017-12-19T16:42:38.116Z,96.10
2017-12-19T16:45:43.950Z,96.00
2017-12-19T16:48:49.483Z,96.00
2017-12-19T16:51:55.938Z,96.10
2017-12-19T16:55:01.408Z,96.10
2017-12-19T16:58:06.818Z,96.20
2017-12-19T17:01:12.334Z,96.10
2017-12-19T17:04:18.313Z,96.50
2017-12-19T17:07:23.246Z,96.40
2017-12-19T17:10:29.600Z,96.30
2017-12-19T17:13:34.931Z,96.10
2017-12-19T17:16:39.763Z,96.10
2017-12-19T17:19:45.294Z,96.10
2017-12-19T17:22:50.766Z,96.90
2017-12-19T17:25:56.564Z,96.80
2017-12-19T17:29:02.330Z,97.00
2017-12-19T17:32:08.022Z,97.30
2017-12-19T17:35:13.741Z,97.60
2017-12-19T17:38:20.390Z,97.70
2017-12-19T17:41:25.794Z,97.70
2017-12-19T17:44:31.354Z,97.70
2017-12-19T17:47:37.481Z,97.70
2017-12-19T17:50:43.472Z,97.60
2017-12-19T17:53:49.082Z,97.60
2017-12-19T17:56:54.812Z,97.70
2017-12-19T18:00:00.002Z,98.00
2017-12-19T18:03:05.070Z,98.20
2017-12-19T18:06:10.750Z,98.50
2017-12-19T18:09:15.747Z,98.60
2017-12-19T18:12:21.253Z,98.50
2017-12-19T18:15:26.379Z,98.80
2017-12-19T18:18:31.916Z,98.80
2017-12-19T18:21:36.806Z,98.60
2017-12-19T18:24:41.975Z,98.70
2017-12-19T18:27:48.230Z,99.20
2017-12-19T18:30:53.542Z,98.90
2017-12-19T18:33:59.255Z,98.70
2017-12-19T18:37:05.810Z,98.70
2017-12-19T18:40:10.874Z,98.70
2017-12-19T18:43:16.402Z,98.50
2017-12-19T18:46:22.186Z,98.20
2017-12-19T18:49:27.345Z,98.20
2017-12-19T18:52:32.621Z,98.30
2017-12-19T18:55:38.868Z,98.40
2017-12-19T18:58:44.092Z,98.40
2017-12-19T19:01:49.458Z,98.50
2017-12-19T19:04:55.363Z,98.20
2017-12-19T19:08:01.138Z,98.20
2017-12-19T19:11:07.222Z,98.20
2017-12-19T19:14:13.531Z,98.20
2017-12-19T19:17:18.770Z,98.20
2017-12-19T19:20:24.130Z,98.30
2017-12-19T19:23:29.672Z,98.20
2017-12-19T19:26:34.607Z,98.00
2017-12-19T19:29:40.306Z,97.90
2017-12-19T19:32:45.959Z,97.90
2017-12-19T19:35:51.398Z,97.90
2017-12-19T19:38:56.712Z,98.10
2017-12-19T19:42:02.852Z,98.20
2017-12-19T19:45:08.588Z,98.20
2017-12-19T19:48:13.912Z,98.30
2017-12-19T19:51:19.674Z,98.10
2017-12-19T19:54:26.047Z,98.20
2017-12-19T19:57:31.306Z,98.20
2017-12-19T20:00:37.479Z,98.20
2017-12-19T20:03:42.913Z,98.10
2017-12-19T20:06:48.578Z,98.00
2017-12-19T20:09:54.466Z,98.10
2017-12-19T20:12:59.356Z,98.40
2017-12-19T20:16:04.754Z,98.60
2017-12-19T20:19:11.286Z,98.50
2017-12-19T20:22:16.370Z,98.20
2017-12-19T20:25:21.275Z,98.60
2017-12-19T20:28:27.840Z,98.60
2017-12-19T20:31:34.454Z,98.50
2017-12-19T20:34:40.749Z,98.30
2017-12-19T20:37:46.162Z,98.30
2017-12-19T20:40:52.458Z,98.10
2017-12-19T20:43:58.013Z,98.00
2017-12-19T20:47:03.727Z,98.20
2017-12-19T20:50:09.691Z,98.60
2017-12-19T20:53:14.726Z,98.60
2017-12-19T20:56:20.342Z,98.60
2017-12-19T20:59:25.922Z,99.00
2017-12-19T21:02:31.030Z,99.00
2017-12-19T21:05:36.225Z,98.90
2017-12-19T21:08:41.473Z,98.80
2017-12-19T21:11:46.752Z,98.60
2017-12-19T21:14:52.592Z,98.80
2017-12-19T21:17:57.985Z,98.80
2017-12-19T21:21:03.693Z,98.70
2017-12-19T21:24:08.866Z,98.70
2017-12-19T21:27:14.759Z,98.50
2017-12-19T21:30:20.059Z,98.50
2017-12-19T21:33:25.814Z,98.40
2017-12-19T21:36:31.305Z,98.30
2017-12-19T21:39:36.662Z,98.30
2017-12-19T21:42:42.522Z,98.10
2017-12-19T21:45:49.054Z,98.30
2017-12-19T21:48:54.546Z,98.30
2017-12-19T21:52:00.772Z,98.50
2017-12-19T21:55:05.682Z,98.50
2017-12-19T21:58:11.489Z,98.40
2017-12-19T22:01:18.019Z,98.60
2017-12-19T22:04:23.735Z,98.50
2017-12-19T22:07:29.290Z,98.70
2017-12-19T22:10:34.044Z,98.50
2017-12-19T22:13:39.222Z,98.50
2017-12-19T22:16:45.085Z,98.80
2017-12-19T22:19:50.761Z,98.80
2017-12-19T22:22:55.662Z,98.60
2017-12-19T22:26:01.431Z,98.80
2017-12-19T22:29:06.781Z,98.80
2017-12-19T22:32:12.098Z,98.70
2017-12-19T22:35:17.654Z,98.50
2017-12-19T22:38:23.374Z,98.70
2017-12-19T22:41:28.385Z,98.70
2017-12-19T22:44:33.574Z,98.60
2017-12-19T22:47:38.526Z,98.50
2017-12-19T22:50:44.213Z,98.40
2017-12-19T22:53:50.838Z,98.40
2017-12-19T22:56:56.429Z,98.40
2017-12-19T23:00:01.691Z,98.70
2017-12-19T23:03:06.670Z,98.30
2017-12-19T23:06:11.802Z,98.20
2017-12-19T23:09:16.770Z,98.10
2017-12-19T23:12:22.213Z,98.20
2017-12-19T23:15:28.722Z,98.20
2017-12-19T23:18:34.501Z,98.20
2017-12-19T23:21:39.674Z,98.20
2017-12-19T23:24:45.078Z,98.20
2017-12-19T23:27:50.787Z,98.20
2017-12-19T23:30:57.472Z,98.20
2017-12-19T23:34:03.171Z,98.10
2017-12-19T23:37:09.197Z,98.30
2017-12-19T23:40:14.406Z,98.20
2017-12-19T23:43:20.406Z,98.30
2017-12-19T23:46:25.185Z,98.30
2017-12-19T23:49:30.265Z,98.20
2017-12-19T23:52:36.236Z,98.10
2017-12-19T23:55:41.138Z,98.10
2017-12-19T23:58:46.210Z,98.00
